createdAt,value
2023-02-21T00:00:34.173Z,101641.78
2023-02-21T00:03:19.361Z,101646.97
2023-02-21T00:06:06.871Z,101634.84
2023-02-21T00:08:52.019Z,101640.03
2023-02-21T00:11:37.346Z,101633.88
2023-02-21T00:14:22.968Z,101628.84
2023-02-21T00:17:08.238Z,101632.09
2023-02-21T00:19:53.329Z,101641.53
2023-02-21T00:22:38.767Z,101637.16
2023-02-21T00:25:25.397Z,101639.75
2023-02-21T00:28:10.760Z,101635.38
2023-02-21T00:30:56.225Z,101637.97
2023-02-21T00:33:41.606Z,101629.41
2023-02-21T00:36:27.131Z,101630.34
2023-02-21T00:39:12.068Z,101630.59
2023-02-21T00:41:57.209Z,101615.72
2023-02-21T00:44:42.472Z,101615.72
2023-02-21T00:47:27.706Z,101614.94
2023-02-21T00:50:12.744Z,101612.34
2023-02-21T00:52:58.488Z,101618.31
2023-02-21T00:55:43.891Z,101611.38
2023-02-21T00:58:29.175Z,101610.56
2023-02-21T01:01:16.862Z,101607.97
2023-02-21T01:04:02.329Z,101603.59
2023-02-21T01:06:47.830Z,101605.38
2023-02-21T01:09:33.050Z,101609.63
2023-02-21T01:12:18.555Z,101602.78
2023-02-21T01:15:03.905Z,101609.75
2023-02-21T01:17:49.034Z,101614.13
2023-02-21T01:20:34.196Z,101605.53
2023-02-21T01:23:19.425Z,101614.28
2023-02-21T01:29:07.495Z,101607.28
2023-02-21T01:31:53.166Z,101606.50
2023-02-21T01:34:38.351Z,101616.03
2023-02-21T01:37:23.956Z,101615.06
2023-02-21T01:40:09.110Z,101609.88
2023-02-21T01:42:54.383Z,101609.09
2023-02-21T01:45:39.577Z,101608.25
2023-02-21T01:48:33.852Z,101601.31
2023-02-21T01:51:21.768Z,101606.34
2023-02-21T01:54:07.463Z,101609.09
2023-02-21T01:56:53.666Z,101599.66
2023-02-21T01:59:42.104Z,101604.84
2023-02-21T02:02:52.485Z,101600.75
2023-02-21T02:05:39.759Z,101598.84
2023-02-21T02:08:25.073Z,101599.81
2023-02-21T02:11:21.714Z,101598.84
2023-02-21T02:14:15.435Z,101590.41
2023-02-21T02:16:42.652Z,101599.00
2023-02-21T02:19:11.972Z,101594.75
2023-02-21T02:21:57.265Z,101598.03
2023-02-21T02:24:36.509Z,101588.63
2023-02-21T02:27:27.131Z,101590.41
2023-02-21T02:30:15.294Z,101591.34
2023-02-21T02:33:21.824Z,101587.97
2023-02-21T02:36:10.893Z,101595.84
2023-02-21T02:38:49.001Z,101588.22
2023-02-21T02:41:36.991Z,101594.09
2023-02-21T02:44:18.910Z,101594.91
2023-02-21T02:46:49.175Z,101583.56
2023-02-21T02:49:26.171Z,101591.34
2023-02-21T02:51:53.623Z,101599.94
2023-02-21T02:54:20.554Z,101594.75
2023-02-21T02:56:47.985Z,101593.00
2023-02-21T02:59:21.985Z,101595.59
2023-02-21T03:02:45.961Z,101587.00
2023-02-21T03:05:32.149Z,101594.75
2023-02-21T03:08:27.976Z,101592.16
2023-02-21T03:11:15.138Z,101586.16
2023-02-21T03:13:56.902Z,101590.41
2023-02-21T03:16:28.302Z,101589.72
2023-02-21T03:19:04.341Z,101598.31
2023-02-21T03:21:36.264Z,101596.53
2023-02-21T03:24:05.594Z,101597.34
2023-02-21T03:26:36.238Z,101599.41
2023-02-21T03:29:04.890Z,101598.44
2023-02-21T03:31:39.723Z,101597.50
2023-02-21T03:34:06.445Z,101601.03
2023-02-21T03:36:33.718Z,101595.06
2023-02-21T03:39:00.355Z,101604.28
2023-02-21T03:41:27.280Z,101606.88
2023-02-21T03:43:54.603Z,101613.84
2023-02-21T03:46:21.405Z,101609.47
2023-02-21T03:48:48.107Z,101613.03
2023-02-21T03:51:15.354Z,101605.94
2023-02-21T03:53:42.302Z,101612.22
2023-02-21T03:56:09.108Z,101616.44
2023-02-21T03:58:38.225Z,101610.59
2023-02-21T04:01:05.423Z,101615.63
2023-02-21T04:03:32.083Z,101622.41
2023-02-21T04:05:59.828Z,101610.44
2023-02-21T04:08:26.369Z,101614.66
2023-02-21T04:10:54.091Z,101612.22
2023-02-21T04:13:20.987Z,101610.59
2023-02-21T04:15:47.771Z,101614.13
2023-02-21T04:18:14.422Z,101617.53
2023-02-21T04:20:41.051Z,101618.38
2023-02-21T04:23:10.066Z,101619.97
2023-02-21T04:25:36.796Z,101620.13
2023-02-21T04:28:03.494Z,101615.22
2023-02-21T04:30:30.139Z,101627.06
2023-02-21T04:32:57.316Z,101620.25
2023-02-21T04:35:23.968Z,101621.06
2023-02-21T04:37:50.778Z,101622.84
2023-02-21T04:40:17.431Z,101626.25
2023-02-21T04:42:44.076Z,101621.91
2023-02-21T04:45:10.818Z,101621.06
2023-02-21T04:47:37.612Z,101620.97
2023-02-21T04:50:05.449Z,101609.78
2023-02-21T04:52:32.762Z,101608.78
2023-02-21T04:54:59.702Z,101609.63
2023-02-21T04:57:26.233Z,101613.97
2023-02-21T05:00:00.335Z,101615.78
2023-02-21T05:02:28.242Z,101613.19
2023-02-21T05:04:54.887Z,101614.13
2023-02-21T05:07:21.606Z,101612.34
2023-02-21T05:09:48.243Z,101618.38
2023-02-21T05:12:14.807Z,101613.31
2023-02-21T05:14:42.030Z,101608.13
2023-02-21T05:17:10.128Z,101609.78
2023-02-21T05:19:36.765Z,101605.53
2023-02-21T05:22:07.626Z,101611.69
2023-02-21T05:24:35.295Z,101607.31
2023-02-21T05:27:01.961Z,101608.28
2023-02-21T05:29:29.851Z,101615.38
2023-02-21T05:31:56.601Z,101611.28
2023-02-21T05:34:23.345Z,101602.00
2023-02-21T05:36:50.206Z,101610.59
2023-02-21T05:39:16.859Z,101613.19
2023-02-21T05:41:50.686Z,101602.00
2023-02-21T05:44:18.507Z,101601.88
2023-02-21T05:46:46.227Z,101602.94
2023-02-21T05:49:13.250Z,101597.78
2023-02-21T05:51:43.072Z,101598.59
2023-02-21T05:54:15.199Z,101596.00
2023-02-21T05:56:43.410Z,101600.50
2023-02-21T05:59:11.036Z,101603.09
2023-02-21T06:01:37.979Z,101600.50
2023-02-21T06:04:05.158Z,101593.69
2023-02-21T06:06:31.903Z,101593.69
2023-02-21T06:08:58.632Z,101600.78
2023-02-21T06:11:28.260Z,101590.97
2023-02-21T06:13:57.723Z,101593.44
2023-02-21T06:16:26.140Z,101602.16
2023-02-21T06:18:54.644Z,101595.34
2023-02-21T06:21:21.317Z,101603.94
2023-02-21T06:23:48.901Z,101596.97
2023-02-21T06:26:16.418Z,101600.25
2023-02-21T06:28:43.172Z,101596.16
2023-02-21T06:31:10.152Z,101597.66
2023-02-21T06:33:37.080Z,101596.97
2023-02-21T06:36:17.245Z,101597.81
2023-02-21T06:38:51.354Z,101599.44
2023-02-21T06:41:20.762Z,101603.00
2023-02-21T06:43:48.620Z,101603.94
2023-02-21T06:46:20.353Z,101606.38
2023-02-21T06:48:47.412Z,101602.00
2023-02-21T06:51:15.092Z,101605.69
2023-02-21T06:53:42.636Z,101602.16
2023-02-21T06:56:09.419Z,101605.44
2023-02-21T06:58:36.654Z,101605.44
2023-02-21T07:01:04.066Z,101614.97
2023-02-21T07:03:30.750Z,101609.94
2023-02-21T07:05:57.460Z,101614.28
2023-02-21T07:08:26.229Z,101609.94
2023-02-21T07:10:53.042Z,101607.34
2023-02-21T07:13:22.174Z,101613.47
2023-02-21T07:15:49.164Z,101610.03
2023-02-21T07:18:15.730Z,101611.97
2023-02-21T07:20:44.603Z,101610.19
2023-02-21T07:23:11.302Z,101609.53
2023-02-21T07:25:37.891Z,101612.78
2023-02-21T07:28:05.608Z,101620.81
2023-02-21T07:30:32.341Z,101613.88
2023-02-21T07:32:59.443Z,101621.53
2023-02-21T07:35:26.444Z,101618.78
2023-02-21T07:37:53.033Z,101623.81
2023-02-21T07:40:20.478Z,101631.31
2023-02-21T07:42:48.225Z,101625.88
2023-02-21T07:45:16.575Z,101623.28
2023-02-21T07:47:47.919Z,101628.56
2023-02-21T07:50:16.064Z,101624.22
2023-02-21T07:52:42.761Z,101625.06
2023-02-21T07:55:12.438Z,101624.91
2023-02-21T07:57:39.340Z,101624.09
2023-02-21T08:00:07.022Z,101624.91
2023-02-21T08:02:33.570Z,101630.75
2023-02-21T08:05:00.273Z,101619.56
2023-02-21T08:07:27.002Z,101635.25
2023-02-21T08:09:53.759Z,101631.06
2023-02-21T08:12:20.692Z,101631.84
2023-02-21T08:14:47.297Z,101638.00
2023-02-21T08:17:14.271Z,101636.22
2023-02-21T08:19:41.105Z,101638.69
2023-02-21T08:22:08.919Z,101643.72
2023-02-21T08:24:35.499Z,101642.63
2023-02-21T08:27:02.146Z,101644.25
2023-02-21T08:29:29.105Z,101643.28
2023-02-21T08:31:55.792Z,101640.84
2023-02-21T08:34:22.782Z,101637.31
2023-02-21T08:36:49.528Z,101641.69
2023-02-21T08:39:16.371Z,101645.75
2023-02-21T08:41:45.654Z,101645.75
2023-02-21T08:44:16.510Z,101641.25
2023-02-21T08:46:43.883Z,101645.63
2023-02-21T08:49:11.054Z,101639.50
2023-02-21T08:51:37.820Z,101644.38
2023-02-21T08:54:05.803Z,101639.88
2023-02-21T08:56:33.188Z,101638.78
2023-02-21T08:59:00.445Z,101636.09
2023-02-21T09:01:33.867Z,101633.50
2023-02-21T09:04:01.403Z,101635.09
2023-02-21T09:06:28.244Z,101639.34
2023-02-21T09:08:55.239Z,101634.84
2023-02-21T09:11:21.927Z,101635.78
2023-02-21T09:13:48.636Z,101639.03
2023-02-21T09:16:15.242Z,101632.09
2023-02-21T09:18:41.870Z,101636.47
2023-02-21T09:21:08.637Z,101631.44
2023-02-21T09:23:35.194Z,101638.09
2023-02-21T09:26:01.884Z,101635.38
2023-02-21T09:28:31.283Z,101636.19
2023-02-21T09:30:57.903Z,101635.91
2023-02-21T09:33:25.311Z,101640.00
2023-02-21T09:35:54.028Z,101639.72
2023-02-21T09:38:20.841Z,101632.50
2023-02-21T09:40:56.756Z,101637.69
2023-02-21T09:43:40.750Z,101634.09
2023-02-21T09:46:14.034Z,101634.94
2023-02-21T09:48:43.602Z,101629.34
2023-02-21T09:51:12.075Z,101629.88
2023-02-21T09:53:48.867Z,101629.72
2023-02-21T09:56:18.358Z,101624.72
2023-02-21T09:58:45.419Z,101627.81
2023-02-21T10:01:27.255Z,101628.50
2023-02-21T10:04:17.372Z,101633.41
2023-02-21T10:06:54.872Z,101625.47
2023-02-21T10:09:30.359Z,101630.38
2023-02-21T10:12:10.675Z,101628.63
2023-02-21T10:14:55.883Z,101643.19
2023-02-21T10:17:49.889Z,101631.72
2023-02-21T10:20:29.982Z,101628.88
2023-02-21T10:22:57.191Z,101634.88
2023-02-21T10:25:34.050Z,101625.44
2023-02-21T10:28:01.047Z,101637.75
2023-02-21T10:30:38.132Z,101639.50
2023-02-21T10:33:06.756Z,101641.16
2023-02-21T10:35:36.218Z,101640.34
2023-02-21T10:38:09.960Z,101639.50
2023-02-21T10:40:42.529Z,101645.25
2023-02-21T10:43:25.964Z,101637.88
2023-02-21T10:46:11.483Z,101652.03
2023-02-21T10:48:41.588Z,101650.13
2023-02-21T10:51:16.768Z,101650.94
2023-02-21T10:53:46.485Z,101641.66
2023-02-21T10:56:16.591Z,101644.00
2023-02-21T10:58:48.175Z,101645.75
2023-02-21T11:01:43.522Z,101649.28
2023-02-21T11:04:35.401Z,101645.88
2023-02-21T11:07:05.475Z,101657.06
2023-02-21T11:09:37.508Z,101657.47
2023-02-21T11:12:19.039Z,101651.34
2023-02-21T11:15:19.156Z,101649.28
2023-02-21T11:17:47.109Z,101641.41
2023-02-21T11:20:13.673Z,101642.06
2023-02-21T11:22:59.104Z,101649.44
2023-02-21T11:25:32.095Z,101646.00
2023-02-21T11:28:09.798Z,101643.56
2023-02-21T11:30:39.708Z,101646.00
2023-02-21T11:33:08.380Z,101649.28
2023-02-21T11:35:46.232Z,101644.75
2023-02-21T11:38:40.848Z,101635.34
2023-02-21T11:41:18.774Z,101633.44
2023-02-21T11:43:50.608Z,101636.03
2023-02-21T11:46:45.020Z,101636.03
2023-02-21T11:49:22.472Z,101630.69
2023-02-21T11:52:11.582Z,101630.56
2023-02-21T11:54:39.954Z,101632.19
2023-02-21T11:57:22.480Z,101624.28
2023-02-21T12:00:26.597Z,101626.88
2023-02-21T12:03:11.438Z,101633.00
2023-02-21T12:06:05.825Z,101625.66
2023-02-21T12:08:54.233Z,101620.47
2023-02-21T12:11:34.943Z,101621.13
2023-02-21T12:14:35.958Z,101619.53
2023-02-21T12:17:15.072Z,101618.56
2023-02-21T12:19:54.301Z,101617.72
2023-02-21T12:22:43.485Z,101613.34
2023-02-21T12:25:17.251Z,101609.28
2023-02-21T12:27:50.470Z,101611.19
2023-02-21T12:30:26.952Z,101605.84
2023-02-21T12:33:08.621Z,101605.84
2023-02-21T12:35:49.099Z,101604.09
2023-02-21T12:38:34.320Z,101607.66
2023-02-21T12:41:38.074Z,101596.47
2023-02-21T12:44:07.703Z,101598.91
2023-02-21T12:47:07.470Z,101597.66
2023-02-21T12:49:53.389Z,101598.03
2023-02-21T12:52:29.715Z,101593.53
2023-02-21T12:55:21.778Z,101589.16
2023-02-21T12:58:03.695Z,101578.78
2023-02-21T13:00:37.178Z,101589.03
2023-02-21T13:03:30.134Z,101586.44
2023-02-21T13:06:02.705Z,101584.94
2023-02-21T13:08:44.034Z,101589.03
2023-02-21T13:11:17.154Z,101577.69
2023-02-21T13:13:44.162Z,101582.03
2023-02-21T13:16:14.141Z,101583.84
2023-02-21T13:18:59.523Z,101576.06
2023-02-21T13:21:34.872Z,101570.88
2023-02-21T13:24:26.473Z,101563.09
2023-02-21T13:27:06.422Z,101559.81
2023-02-21T13:29:38.947Z,101554.09
2023-02-21T13:32:13.168Z,101547.59
2023-02-21T13:34:45.669Z,101549.19
2023-02-21T13:37:19.331Z,101543.50
2023-02-21T13:40:20.438Z,101546.75
2023-02-21T13:42:47.282Z,101540.59
2023-02-21T13:45:24.963Z,101538.69
2023-02-21T13:47:57.674Z,101539.22
2023-02-21T13:50:47.528Z,101538.25
2023-02-21T13:53:33.755Z,101540.84
2023-02-21T13:56:00.239Z,101536.19
2023-02-21T13:58:49.255Z,101536.63
2023-02-21T14:01:30.943Z,101528.84
2023-02-21T14:03:57.805Z,101531.16
2023-02-21T14:06:32.309Z,101530.03
2023-02-21T14:09:04.963Z,101531.81
2023-02-21T14:11:39.704Z,101537.50
2023-02-21T14:14:23.944Z,101529.72
2023-02-21T14:16:53.558Z,101524.53
2023-02-21T14:19:30.319Z,101528.25
2023-02-21T14:22:13.411Z,101529.72
2023-02-21T14:24:44.645Z,101520.34
2023-02-21T14:30:01.160Z,101526.34
2023-02-21T14:32:55.083Z,101520.00
2023-02-21T14:35:38.355Z,101523.44
2023-02-21T14:38:20.694Z,101525.06
2023-02-21T14:41:05.496Z,101523.31
2023-02-21T14:43:56.768Z,101521.81
2023-02-21T14:46:45.211Z,101524.41
2023-02-21T14:49:17.918Z,101517.56
2023-02-21T14:52:02.586Z,101519.34
2023-02-21T14:54:44.308Z,101516.25
2023-02-21T14:57:26.004Z,101522.03
2023-02-21T15:00:18.808Z,101521.50
2023-02-21T15:03:12.891Z,101519.19
2023-02-21T15:05:48.674Z,101517.56
2023-02-21T15:08:41.853Z,101515.25
2023-02-21T15:11:24.094Z,101521.44
2023-02-21T15:14:31.728Z,101516.25
2023-02-21T15:17:12.359Z,101517.84
2023-02-21T15:19:39.831Z,101517.03
2023-02-21T15:22:25.733Z,101511.84
2023-02-21T15:25:07.820Z,101512.81
2023-02-21T15:27:50.670Z,101511.19
2023-02-21T15:30:22.740Z,101519.28
2023-02-21T15:33:08.377Z,101515.19
2023-02-21T15:35:44.233Z,101514.22
2023-02-21T15:38:18.251Z,101514.09
2023-02-21T15:40:46.468Z,101517.63
2023-02-21T15:43:38.360Z,101512.59
2023-02-21T15:46:08.748Z,101502.22
2023-02-21T15:48:36.119Z,101509.44
2023-02-21T15:51:08.465Z,101508.75
2023-02-21T15:53:35.209Z,101502.63
2023-02-21T15:56:22.335Z,101505.22
2023-02-21T15:59:10.489Z,101499.22
2023-02-21T16:01:37.301Z,101506.44
2023-02-21T16:04:23.534Z,101502.09
2023-02-21T16:06:58.018Z,101509.03
2023-02-21T16:09:31.652Z,101509.03
2023-02-21T16:12:19.479Z,101506.59
2023-02-21T16:14:57.470Z,101503.06
2023-02-21T16:17:27.204Z,101506.75
2023-02-21T16:19:57.296Z,101504.97
2023-02-21T16:22:29.134Z,101498.97
2023-02-21T16:25:10.821Z,101504.28
2023-02-21T16:27:38.798Z,101496.81
2023-02-21T16:30:11.982Z,101499.53
2023-02-21T16:32:39.748Z,101499.69
2023-02-21T16:35:06.753Z,101502.13
2023-02-21T16:37:33.680Z,101498.72
2023-02-21T16:40:00.674Z,101505.69
2023-02-21T16:42:27.361Z,101500.66
2023-02-21T16:44:54.211Z,101502.44
2023-02-21T16:47:22.190Z,101509.41
2023-02-21T16:49:49.268Z,101500.66
2023-02-21T16:52:17.811Z,101512.00
2023-02-21T16:54:44.533Z,101505.16
2023-02-21T16:57:11.511Z,101506.94
2023-02-21T16:59:38.875Z,101509.53
2023-02-21T17:02:06.814Z,101511.31
2023-02-21T17:04:33.931Z,101508.72
2023-02-21T17:07:03.935Z,101510.34
2023-02-21T17:09:39.651Z,101505.31
2023-02-21T17:12:06.987Z,101506.25
2023-02-21T17:14:34.384Z,101512.41
2023-02-21T17:17:01.076Z,101513.38
2023-02-21T17:19:27.767Z,101514.19
2023-02-21T17:21:54.856Z,101506.41
2023-02-21T17:24:24.004Z,101506.25
2023-02-21T17:26:53.571Z,101508.72
2023-02-21T17:29:21.294Z,101511.16
2023-02-21T17:31:53.833Z,101512.94
2023-02-21T17:34:21.347Z,101512.13
2023-02-21T17:36:52.306Z,101519.09
2023-02-21T17:39:21.510Z,101521.69
2023-02-21T17:41:49.711Z,101517.44
2023-02-21T17:44:18.244Z,101518.44
2023-02-21T17:46:51.174Z,101518.28
2023-02-21T17:49:19.568Z,101521.69
2023-02-21T17:51:49.418Z,101524.28
2023-02-21T17:54:21.253Z,101513.91
2023-02-21T17:56:48.230Z,101526.88
2023-02-21T17:59:15.907Z,101514.69
2023-02-21T18:01:42.987Z,101519.22
2023-02-21T18:04:10.649Z,101521.03
2023-02-21T18:06:38.612Z,101524.56
2023-02-21T18:09:07.474Z,101525.50
2023-02-21T18:11:37.157Z,101521.97
2023-02-21T18:14:04.825Z,101526.19
2023-02-21T18:16:31.597Z,101527.00
2023-02-21T18:18:58.537Z,101528.78
2023-02-21T18:21:27.456Z,101523.47
2023-02-21T18:23:54.391Z,101525.22
2023-02-21T18:26:21.231Z,101525.22
2023-02-21T18:28:47.931Z,101525.06
2023-02-21T18:31:19.454Z,101523.47
2023-02-21T18:33:46.513Z,101519.22
2023-02-21T18:36:13.208Z,101515.84
2023-02-21T18:38:41.024Z,101514.84
2023-02-21T18:41:16.079Z,101520.03
2023-02-21T18:43:44.198Z,101515.84
2023-02-21T18:46:12.878Z,101516.78
2023-02-21T18:48:43.399Z,101513.38
2023-02-21T18:51:11.503Z,101508.34
2023-02-21T18:53:38.700Z,101516.13
2023-02-21T18:56:24.734Z,101516.25
2023-02-21T18:58:51.715Z,101518.97
2023-02-21T19:01:21.863Z,101512.19
2023-02-21T19:03:53.030Z,101512.19
2023-02-21T19:06:21.502Z,101507.94
2023-02-21T19:08:50.550Z,101503.88
2023-02-21T19:11:18.133Z,101506.59
2023-02-21T19:13:47.364Z,101498.00
2023-02-21T19:16:15.511Z,101498.97
2023-02-21T19:18:42.122Z,101494.59
2023-02-21T19:21:12.746Z,101492.00
2023-02-21T19:23:40.664Z,101485.88
2023-02-21T19:26:09.312Z,101479.88
2023-02-21T19:28:38.531Z,101483.41
2023-02-21T19:31:08.084Z,101477.13
2023-02-21T19:33:34.882Z,101475.38
2023-02-21T19:36:04.292Z,101479.72
2023-02-21T19:38:31.991Z,101470.34
2023-02-21T19:40:58.742Z,101474.69
2023-02-21T19:43:25.384Z,101473.88
2023-02-21T19:45:52.860Z,101469.50
2023-02-21T19:48:21.441Z,101472.25
2023-02-21T19:50:48.210Z,101473.19
2023-02-21T19:53:15.287Z,101469.00
2023-02-21T19:55:42.326Z,101463.81
2023-02-21T19:58:09.331Z,101469.78
2023-02-21T20:00:38.692Z,101464.59
2023-02-21T20:03:05.685Z,101464.91
2023-02-21T20:05:32.614Z,101464.25
2023-02-21T20:07:59.885Z,101465.19
2023-02-21T20:10:26.994Z,101465.19
2023-02-21T20:12:55.599Z,101467.78
2023-02-21T20:15:22.428Z,101471.19
2023-02-21T20:17:49.456Z,101468.44
2023-02-21T20:20:17.147Z,101472.81
2023-02-21T20:22:43.727Z,101473.78
2023-02-21T20:25:11.466Z,101477.19
2023-02-21T20:27:38.249Z,101473.78
2023-02-21T20:30:06.059Z,101474.72
2023-02-21T20:32:32.840Z,101475.84
2023-02-21T20:34:59.840Z,101472.28
2023-02-21T20:37:31.121Z,101469.03
2023-02-21T20:39:59.908Z,101462.06
2023-02-21T20:42:26.701Z,101465.47
2023-02-21T20:44:53.384Z,101463.03
2023-02-21T20:47:20.113Z,101459.63
2023-02-21T20:49:47.632Z,101459.63
2023-02-21T20:52:15.869Z,101452.81
2023-02-21T20:54:43.185Z,101454.44
2023-02-21T20:57:10.317Z,101447.75
2023-02-21T20:59:39.376Z,101446.16
2023-02-21T21:02:08.550Z,101448.75
2023-02-21T21:04:43.390Z,101442.75
2023-02-21T21:07:19.999Z,101437.56
2023-02-21T21:09:47.657Z,101439.31
2023-02-21T21:12:17.367Z,101441.75
2023-02-21T21:14:45.917Z,101442.59
2023-02-21T21:17:17.298Z,101430.47
2023-02-21T21:19:46.852Z,101440.81
2023-02-21T21:22:19.305Z,101433.88
2023-02-21T21:24:46.380Z,101438.22
2023-02-21T21:27:15.428Z,101432.22
2023-02-21T21:29:44.991Z,101431.41
2023-02-21T21:32:17.338Z,101433.03
2023-02-21T21:34:46.952Z,101423.78
2023-02-21T21:37:14.673Z,101426.22
2023-02-21T21:39:49.670Z,101420.25
2023-02-21T21:42:18.648Z,101425.44
2023-02-21T21:44:47.916Z,101433.31
2023-02-21T21:47:15.672Z,101429.94
2023-02-21T21:49:42.818Z,101425.56
2023-02-21T21:52:10.560Z,101427.19
2023-02-21T21:54:37.823Z,101419.44
2023-02-21T21:57:05.580Z,101417.78
2023-02-21T21:59:32.985Z,101415.34
2023-02-21T22:02:00.148Z,101418.75
2023-02-21T22:04:27.559Z,101411.00
2023-02-21T22:06:55.902Z,101413.44
2023-02-21T22:09:22.908Z,101414.41
2023-02-21T22:11:50.209Z,101407.56
2023-02-21T22:14:18.792Z,101399.97
2023-02-21T22:16:48.249Z,101393.97
2023-02-21T22:19:16.417Z,101394.78
2023-02-21T22:21:45.202Z,101394.13
2023-02-21T22:24:15.416Z,101392.47
2023-02-21T22:26:44.998Z,101384.03
2023-02-21T22:29:15.732Z,101382.28
2023-02-21T22:31:47.363Z,101376.25
2023-02-21T22:34:24.329Z,101378.97
2023-02-21T22:36:53.536Z,101373.81
2023-02-21T22:39:21.545Z,101376.38
2023-02-21T22:41:49.131Z,101375.59
2023-02-21T22:44:16.549Z,101376.53
2023-02-21T22:46:50.565Z,101375.59
2023-02-21T22:49:17.325Z,101370.53
2023-02-21T22:51:44.342Z,101364.56
2023-02-21T22:54:14.641Z,101373.81
2023-02-21T22:56:51.062Z,101363.44
2023-02-21T22:59:26.501Z,101363.44
2023-02-21T23:01:53.446Z,101360.84
2023-02-21T23:04:26.005Z,101365.38
2023-02-21T23:06:57.964Z,101356.09
2023-02-21T23:09:26.096Z,101361.28
2023-02-21T23:11:56.572Z,101351.75
2023-02-21T23:14:23.605Z,101355.16
2023-02-21T23:16:54.841Z,101353.50
2023-02-21T23:19:23.413Z,101359.69
2023-02-21T23:21:52.403Z,101353.84
2023-02-21T23:24:20.478Z,101355.59
2023-02-21T23:26:48.802Z,101351.25
2023-02-21T23:29:21.219Z,101357.25
2023-02-21T23:31:48.696Z,101346.06
2023-02-21T23:34:15.797Z,101340.88
2023-02-21T23:36:44.397Z,101346.06
2023-02-21T23:39:15.427Z,101340.88
2023-02-21T23:41:49.102Z,101342.81
2023-02-21T23:44:16.402Z,101344.56
2023-02-21T23:46:44.956Z,101339.41
2023-02-21T23:49:15.717Z,101333.41
2023-02-21T23:51:44.028Z,101322.22
2023-02-21T23:54:13.742Z,101326.59
2023-02-21T23:56:40.548Z,101325.63
2023-02-21T23:59:07.999Z,101319.63
